Time;durP1;ratioP1;P1;durP2;ratioP2;P2;SDS_P1;SDS_P2;PMS_P1;PMS_P2;Temp;Humidity;BMP_temperature;BMP_pressure;BME280_temperature;BME280_humidity;BME280_pressure;Samples;Min_cycle;Max_cycle;Signal;HPM_P1;HPM_P2
2021/09/20 00:00:37;;;;;;;;;;;;;;;13.11;59.90;99521.31;4439950;32;20417;-89
2021/09/20 00:03:03;;;;;;;;;;;;;;;13.11;59.90;99525.69;4440106;32;20044;-90
2021/09/20 00:05:28;;;;;;;;;;;;;;;13.11;59.90;99528.31;4426962;32;20330;-90
2021/09/20 00:07:53;;;;;;;;;;;;;;;13.08;59.90;99528.44;4439736;32;28879;-89
2021/09/20 00:10:18;;;;;;;;;;;;;;;13.06;59.90;99536.34;4439254;32;31870;-90
2021/09/20 00:12:44;;;;;;;;;;;;;;;13.11;59.90;99536.13;4454456;32;20256;-88
2021/09/20 00:15:09;;;;;;;;;;;;;;;13.20;59.91;99525.28;4439808;32;26806;-89
2021/09/20 00:17:34;;;;;;;;;;;;;;;13.16;59.91;99527.16;4443996;32;20042;-89
2021/09/20 00:19:59;;;;;;;;;;;;;;;13.13;59.91;99529.91;4456762;32;21318;-89
2021/09/20 00:22:25;;;;;;;;;;;;;;;13.08;59.90;99531.06;4454593;32;19985;-89
2021/09/20 00:24:50;;;;;;;;;;;;;;;13.12;59.91;99525.62;4454179;32;20100;-89
2021/09/20 00:27:15;;;;;;;;;;;;;;;13.16;59.90;99537.63;4439436;32;26078;-88
2021/09/20 00:29:40;;;;;;;;;;;;;;;13.07;59.91;99535.44;4439887;32;20041;-89
2021/09/20 00:32:06;;;;;;;;;;;;;;;13.19;59.90;99523.59;4453258;32;32646;-88
2021/09/20 00:34:31;;;;;;;;;;;;;;;13.06;59.91;99543.34;4439798;32;20037;-90
2021/09/20 00:36:56;;;;;;;;;;;;;;;13.13;59.91;99532.53;4439093;32;34301;-90
2021/09/20 00:39:21;;;;;;;;;;;;;;;13.13;59.91;99529.91;4438944;32;31765;-90
2021/09/20 00:41:46;;;;;;;;;;;;;;;13.34;59.92;99515.03;4438819;32;32317;-89
2021/09/20 00:44:12;;;;;;;;;;;;;;;13.34;59.92;99509.81;4439436;32;20262;-89
2021/09/20 00:46:37;;;;;;;;;;;;;;;13.42;59.93;99509.44;4453268;32;30437;-90
2021/09/20 00:49:02;;;;;;;;;;;;;;;13.36;59.92;99513.19;4439944;32;19992;-89
2021/09/20 00:51:27;;;;;;;;;;;;;;;13.52;59.92;99508.09;4439297;32;27756;-91
2021/09/20 00:53:53;;;;;;;;;;;;;;;13.67;59.94;99514.34;4439312;32;29783;-90
2021/09/20 00:56:18;;;;;;;;;;;;;;;13.69;59.93;99515.97;4439762;32;19986;-89
2021/09/20 00:58:43;;;;;;;;;;;;;;;13.68;59.93;99513.44;4439553;32;20262;-88
2021/09/20 01:01:08;;;;;;;;;;;;;;;13.79;59.94;99519.84;4439091;32;20380;-89
2021/09/20 01:03:34;;;;;;;;;;;;;;;13.82;59.95;99522.31;4439013;32;21669;-88
2021/09/20 01:05:59;;;;;;;;;;;;;;;13.87;59.94;99518.63;4439519;32;19999;-88
2021/09/20 01:08:25;;;;;;;;;;;;;;;13.87;59.94;99519.47;4439396;32;20009;-89
2021/09/20 01:10:50;;;;;;;;;;;;;;;13.87;59.94;99513.37;4439423;32;19997;-88
2021/09/20 01:13:15;;;;;;;;;;;;;;;13.99;59.95;99507.56;4425875;32;29099;-88
2021/09/20 01:15:40;;;;;;;;;;;;;;;13.94;59.94;99502.53;4438717;32;29098;-89
2021/09/20 01:18:06;;;;;;;;;;;;;;;14.05;59.96;99488.94;4438467;32;32984;-88
2021/09/20 01:20:31;;;;;;;;;;;;;;;14.06;59.95;99499.31;4439218;32;20422;-89
2021/09/20 01:23:02;;;;;;;;;;;;;;;14.11;59.96;99489.44;4439161;32;20011;-88
2021/09/20 01:25:28;;;;;;;;;;;;;;;14.13;59.96;99498.06;4425466;32;20031;-88
2021/09/20 01:27:53;;;;;;;;;;;;;;;14.24;59.96;99489.69;4439085;32;20033;-89
2021/09/20 01:30:18;;;;;;;;;;;;;;;14.20;59.96;99498.63;4453648;32;20294;-89
2021/09/20 01:32:45;;;;;;;;;;;;;;;14.09;59.95;99503.53;4439236;32;20046;-88
2021/09/20 01:35:10;;;;;;;;;;;;;;;14.10;59.96;99500.84;4439201;32;20011;-89
2021/09/20 01:37:35;;;;;;;;;;;;;;;14.17;59.95;99498.75;4438799;32;23353;-88
2021/09/20 01:40:00;;;;;;;;;;;;;;;14.21;59.96;99499.47;4438567;32;28574;-89
2021/09/20 01:42:26;;;;;;;;;;;;;;;14.20;59.97;99496.00;4439260;32;19996;-89
2021/09/20 01:44:51;;;;;;;;;;;;;;;14.23;59.96;99493.22;4425826;32;27046;-89
2021/09/20 01:47:16;;;;;;;;;;;;;;;14.33;59.96;99494.44;4452642;32;31345;-88
2021/09/20 01:49:41;;;;;;;;;;;;;;;14.32;59.96;99498.00;4426341;32;20367;-89
2021/09/20 01:52:06;;;;;;;;;;;;;;;14.36;59.97;99490.81;4453243;32;20037;-88
2021/09/20 01:54:32;;;;;;;;;;;;;;;14.40;59.98;99493.19;4452800;32;22510;-88
2021/09/20 01:56:57;;;;;;;;;;;;;;;14.42;59.97;99491.34;4453314;32;19985;-89
2021/09/20 01:59:22;;;;;;;;;;;;;;;14.41;59.97;99484.41;4438604;32;28176;-88
2021/09/20 02:01:48;;;;;;;;;;;;;;;14.46;59.97;99481.63;4438698;32;31939;-91
2021/09/20 02:04:13;;;;;;;;;;;;;;;14.36;59.97;99481.19;4439149;32;19973;-90
2021/09/20 02:06:38;;;;;;;;;;;;;;;14.45;59.97;99486.94;4441779;32;20073;-90
2021/09/20 02:09:06;;;;;;;;;;;;;;;14.49;59.98;99485.84;4431957;32;19993;-90
2021/09/20 02:11:31;;;;;;;;;;;;;;;14.50;59.98;99488.38;4439819;32;19973;-88
2021/09/20 02:13:57;;;;;;;;;;;;;;;14.57;59.98;99489.75;4438191;32;30455;-88
2021/09/20 02:16:22;;;;;;;;;;;;;;;14.54;59.98;99489.91;4438566;32;20008;-89
2021/09/20 02:18:47;;;;;;;;;;;;;;;14.54;59.98;99495.16;4438115;32;31276;-89
2021/09/20 02:21:15;;;;;;;;;;;;;;;14.52;59.98;99486.53;4438064;32;32815;-89
2021/09/20 02:23:40;;;;;;;;;;;;;;;14.39;59.97;99491.50;4439132;32;20329;-89
2021/09/20 02:26:05;;;;;;;;;;;;;;;14.52;59.98;99491.75;4438938;32;20056;-89
2021/09/20 02:28:31;;;;;;;;;;;;;;;14.50;59.98;99491.00;4437985;32;31115;-90
2021/09/20 02:30:56;;;;;;;;;;;;;;;14.45;59.98;99492.16;4438804;32;20009;-89
2021/09/20 02:33:21;;;;;;;;;;;;;;;14.56;59.98;99493.28;4438022;32;31941;-90
2021/09/20 02:35:46;;;;;;;;;;;;;;;14.58;59.98;99493.19;4440885;32;20000;-90
2021/09/20 02:38:12;;;;;;;;;;;;;;;14.50;59.98;99496.22;4442997;32;29935;-88
2021/09/20 02:40:37;;;;;;;;;;;;;;;14.49;59.98;99486.69;4443586;32;20297;-89
2021/09/20 02:43:02;;;;;;;;;;;;;;;14.48;59.97;99481.53;4443607;32;20314;-89
2021/09/20 02:45:28;;;;;;;;;;;;;;;14.41;59.98;99480.94;4442925;32;28276;-89
2021/09/20 02:47:53;;;;;;;;;;;;;;;14.51;59.98;99484.84;4443417;32;19995;-88
2021/09/20 02:50:18;;;;;;;;;;;;;;;14.54;59.98;99489.06;4442806;32;27748;-89
2021/09/20 02:52:43;;;;;;;;;;;;;;;14.45;59.97;99489.56;4442816;32;22661;-89
2021/09/20 02:55:09;;;;;;;;;;;;;;;14.49;59.98;99481.44;4443054;32;20368;-89
2021/09/20 02:57:34;;;;;;;;;;;;;;;14.61;59.98;99493.03;4457665;32;20276;-87
2021/09/20 02:59:59;;;;;;;;;;;;;;;14.66;59.99;99488.41;4442889;32;25237;-87
2021/09/20 03:02:24;;;;;;;;;;;;;;;14.49;59.98;99491.06;4430538;32;20005;-88
2021/09/20 03:04:49;;;;;;;;;;;;;;;14.54;59.98;99491.69;4443243;32;20011;-88
2021/09/20 03:07:15;;;;;;;;;;;;;;;14.55;59.98;99486.34;4456659;32;34037;-88
2021/09/20 03:09:40;;;;;;;;;;;;;;;14.46;59.97;99480.75;4442921;32;24457;-89
2021/09/20 03:12:05;;;;;;;;;;;;;;;14.60;59.99;99471.25;4442779;32;27911;-88
2021/09/20 03:14:30;;;;;;;;;;;;;;;14.43;59.97;99477.38;4443559;32;20047;-90
2021/09/20 03:16:56;;;;;;;;;;;;;;;14.43;59.97;99482.63;4442846;32;30842;-89
2021/09/20 03:19:21;;;;;;;;;;;;;;;14.68;59.99;99473.47;4431786;32;24720;-94
2021/09/20 03:21:46;;;;;;;;;;;;;;;14.72;59.99;99467.13;4444863;32;24934;-91
2021/09/20 03:24:12;;;;;;;;;;;;;;;14.72;59.99;99457.50;4443233;32;20267;-88
2021/09/20 03:26:38;;;;;;;;;;;;;;;14.73;59.99;99453.09;4443263;32;20019;-87
2021/09/20 03:29:03;;;;;;;;;;;;;;;14.71;59.98;99449.72;4443137;32;20007;-88
2021/09/20 03:31:28;;;;;;;;;;;;;;;14.60;59.98;99452.06;4443090;32;19977;-88
2021/09/20 03:33:53;;;;;;;;;;;;;;;14.50;59.97;99458.72;4442921;32;20068;-88
2021/09/20 03:36:19;;;;;;;;;;;;;;;14.52;59.98;99462.09;4442709;32;24351;-86
2021/09/20 03:38:44;;;;;;;;;;;;;;;14.45;59.97;99463.38;4443044;32;19977;-89
2021/09/20 03:41:09;;;;;;;;;;;;;;;14.26;59.96;99471.28;4442522;32;21116;-88
2021/09/20 03:43:34;;;;;;;;;;;;;;;14.40;59.98;99480.09;4456618;32;25915;-88
2021/09/20 03:46:00;;;;;;;;;;;;;;;14.36;59.97;99481.19;4457327;32;19992;-88
2021/09/20 03:48:25;;;;;;;;;;;;;;;14.22;59.96;99494.16;4439351;32;35128;-88
2021/09/20 03:50:50;;;;;;;;;;;;;;;14.23;59.96;99495.00;4453748;32;31965;-85
2021/09/20 03:53:15;;;;;;;;;;;;;;;14.17;59.95;99496.16;4454310;32;19995;-85
2021/09/20 03:55:40;;;;;;;;;;;;;;;14.30;59.97;99506.84;4453828;32;34594;-89
2021/09/20 03:58:06;;;;;;;;;;;;;;;14.35;59.97;99510.91;4439448;32;33024;-88
2021/09/20 04:00:31;;;;;;;;;;;;;;;14.33;59.96;99507.53;4439560;32;20044;-86
2021/09/20 04:02:56;;;;;;;;;;;;;;;14.38;59.97;99509.91;4454267;32;19992;-86
2021/09/20 04:05:21;;;;;;;;;;;;;;;14.30;59.96;99514.72;4453886;32;21955;-87
2021/09/20 04:07:47;;;;;;;;;;;;;;;14.51;59.98;99510.19;4439904;32;20034;-87
2021/09/20 04:10:12;;;;;;;;;;;;;;;14.39;59.97;99512.44;4439589;32;20017;-88
2021/09/20 04:12:37;;;;;;;;;;;;;;;14.46;59.97;99514.81;4426982;32;20016;-88
2021/09/20 04:15:03;;;;;;;;;;;;;;;14.47;59.97;99525.22;4439951;32;20313;-87
2021/09/20 04:17:30;;;;;;;;;;;;;;;14.51;59.98;99525.88;4426817;32;20011;-87
2021/09/20 04:19:55;;;;;;;;;;;;;;;14.52;59.98;99532.81;4439742;32;19969;-88
2021/09/20 04:22:20;;;;;;;;;;;;;;;14.69;59.98;99538.03;4439512;32;20293;-89
2021/09/20 04:24:46;;;;;;;;;;;;;;;14.83;59.99;99548.63;4440213;32;20006;-89
2021/09/20 04:27:11;;;;;;;;;;;;;;;14.74;59.99;99543.87;4439880;32;28048;-91
2021/09/20 04:29:36;;;;;;;;;;;;;;;14.76;59.99;99546.41;4439556;32;30253;-90
2021/09/20 04:32:01;;;;;;;;;;;;;;;14.70;59.98;99548.44;4439379;32;28445;-90
2021/09/20 04:34:27;;;;;;;;;;;;;;;14.63;59.98;99546.19;4439926;32;20007;-89
2021/09/20 04:36:52;;;;;;;;;;;;;;;14.56;59.98;99550.06;4439760;32;19981;-90
2021/09/20 04:39:17;;;;;;;;;;;;;;;14.72;59.99;99564.06;4453739;32;20031;-91
2021/09/20 04:41:42;;;;;;;;;;;;;;;14.72;59.99;99559.69;4426435;32;29052;-90
2021/09/20 04:44:08;;;;;;;;;;;;;;;14.77;59.98;99558.59;4439591;32;19993;-90
2021/09/20 04:46:33;;;;;;;;;;;;;;;14.90;60.00;99562.25;4427048;32;20026;-91
2021/09/20 04:48:58;;;;;;;;;;;;;;;14.79;60.00;99568.06;4439703;32;20001;-90
2021/09/20 04:51:23;;;;;;;;;;;;;;;14.57;59.98;99575.34;4439694;32;19996;-90
2021/09/20 04:53:48;;;;;;;;;;;;;;;14.48;59.97;99581.06;4439272;32;20603;-90
2021/09/20 04:56:14;;;;;;;;;;;;;;;14.62;59.98;99575.94;4439174;32;23071;-90
2021/09/20 04:58:39;;;;;;;;;;;;;;;14.75;59.99;99574.37;4452823;32;20312;-90
2021/09/20 05:01:04;;;;;;;;;;;;;;;14.90;60.00;99577.97;4439187;32;20076;-90
2021/09/20 05:03:30;;;;;;;;;;;;;;;14.82;59.99;99567.91;4438750;32;32326;-90
2021/09/20 05:05:55;;;;;;;;;;;;;;;14.93;60.00;99569.97;4439444;32;20056;-90
2021/09/20 05:08:20;;;;;;;;;;;;;;;14.94;60.00;99566.44;4438736;32;26518;-90
2021/09/20 05:10:46;;;;;;;;;;;;;;;14.93;60.00;99570.81;4438859;32;32823;-90
2021/09/20 05:13:11;;;;;;;;;;;;;;;15.02;60.01;99565.06;4439620;32;20013;-90
2021/09/20 05:15:36;;;;;;;;;;;;;;;15.09;60.00;99564.75;4439547;32;20277;-91
2021/09/20 05:18:01;;;;;;;;;;;;;;;15.11;60.01;99568.97;4426142;32;29123;-90
2021/09/20 05:20:26;;;;;;;;;;;;;;;15.04;60.01;99565.00;4439717;32;20009;-89
2021/09/20 05:22:52;;;;;;;;;;;;;;;15.23;60.01;99560.47;4453312;32;23948;-90
2021/09/20 05:25:17;;;;;;;;;;;;;;;15.15;60.01;99567.06;4439091;32;20333;-90
2021/09/20 05:27:42;;;;;;;;;;;;;;;15.05;60.01;99578.03;4452400;32;20300;-90
2021/09/20 05:30:09;;;;;;;;;;;;;;;15.13;60.01;99577.59;4439482;32;19989;-90
2021/09/20 05:32:34;;;;;;;;;;;;;;;15.31;60.02;99575.78;4427147;32;20711;-90
2021/09/20 05:34:59;;;;;;;;;;;;;;;15.42;60.03;99583.06;4439758;32;20364;-90
2021/09/20 05:37:25;;;;;;;;;;;;;;;15.38;60.02;99578.91;4452707;32;19989;-92
2021/09/20 05:39:50;;;;;;;;;;;;;;;15.46;60.02;99584.59;4439721;32;20001;-91
2021/09/20 05:42:16;;;;;;;;;;;;;;;15.45;60.03;99588.16;4438761;32;26080;-90
2021/09/20 05:44:41;;;;;;;;;;;;;;;15.62;60.03;99583.72;4439493;32;19996;-91
2021/09/20 05:47:07;;;;;;;;;;;;;;;15.45;60.02;99581.13;4439485;32;19988;-90
2021/09/20 05:49:32;;;;;;;;;;;;;;;15.53;60.03;99581.53;4425790;32;30732;-90
2021/09/20 05:51:57;;;;;;;;;;;;;;;15.53;60.03;99588.56;4439007;32;20004;-90
2021/09/20 05:54:22;;;;;;;;;;;;;;;15.51;60.03;99586.03;4438608;32;23137;-90
2021/09/20 05:56:47;;;;;;;;;;;;;;;15.59;60.03;99590.88;4438600;32;32172;-90
2021/09/20 05:59:13;;;;;;;;;;;;;;;15.46;60.02;99598.56;4452941;32;26937;-90
2021/09/20 06:01:38;;;;;;;;;;;;;;;15.24;60.03;99604.13;4426218;32;21936;-90
2021/09/20 06:04:03;;;;;;;;;;;;;;;15.44;60.03;99602.19;4439420;32;20000;-91
2021/09/20 06:06:28;;;;;;;;;;;;;;;15.42;60.03;99596.19;4439389;32;19991;-91
2021/09/20 06:08:54;;;;;;;;;;;;;;;15.67;60.04;99603.59;4438932;32;24221;-92
2021/09/20 06:11:19;;;;;;;;;;;;;;;15.54;60.03;99609.47;4425657;32;20349;-91
2021/09/20 06:13:45;;;;;;;;;;;;;;;15.58;60.03;99611.03;4439060;32;20023;-90
2021/09/20 06:16:10;;;;;;;;;;;;;;;15.74;60.04;99611.03;4438742;32;22394;-91
2021/09/20 06:18:35;;;;;;;;;;;;;;;15.90;60.05;99611.03;4438684;32;24195;-90
2021/09/20 06:21:01;;;;;;;;;;;;;;;15.78;60.05;99615.19;4426171;32;20000;-92
2021/09/20 06:23:26;;;;;;;;;;;;;;;15.75;60.04;99617.12;4439147;32;20333;-91
2021/09/20 06:25:51;;;;;;;;;;;;;;;15.87;60.05;99619.94;4438343;32;30397;-91
2021/09/20 06:28:16;;;;;;;;;;;;;;;15.95;60.06;99622.97;4438891;32;20005;-91
2021/09/20 06:30:41;;;;;;;;;;;;;;;16.02;60.07;99620.84;4438897;32;20024;-91
2021/09/20 06:33:07;;;;;;;;;;;;;;;16.06;60.06;99627.59;4438421;32;20420;-91
2021/09/20 06:35:32;;;;;;;;;;;;;;;16.13;60.07;99626.34;4438897;32;20004;-91
2021/09/20 06:37:57;;;;;;;;;;;;;;;16.09;60.07;99629.19;4438828;32;20099;-92
2021/09/20 06:40:23;;;;;;;;;;;;;;;16.12;60.06;99631.69;4438562;32;20011;-91
2021/09/20 06:42:48;;;;;;;;;;;;;;;16.23;60.06;99624.88;4438958;32;19977;-91
2021/09/20 06:45:13;;;;;;;;;;;;;;;16.15;60.06;99624.47;4438080;32;29216;-92
2021/09/20 06:47:38;;;;;;;;;;;;;;;16.13;60.06;99628.97;4438783;32;19996;-91
2021/09/20 06:50:04;;;;;;;;;;;;;;;16.21;60.07;99623.28;4453057;32;19973;-91
2021/09/20 06:52:29;;;;;;;;;;;;;;;16.40;60.09;99625.69;4438531;32;20410;-91
2021/09/20 06:54:55;;;;;;;;;;;;;;;16.34;60.08;99634.78;4438501;32;20011;-92
2021/09/20 06:57:20;;;;;;;;;;;;;;;16.47;60.09;99637.53;4450952;32;28951;-91
2021/09/20 06:59:45;;;;;;;;;;;;;;;16.43;60.08;99641.28;4438363;32;20201;-92
2021/09/20 07:02:10;;;;;;;;;;;;;;;16.58;60.09;99632.53;4452105;32;25284;-92
2021/09/20 07:04:35;;;;;;;;;;;;;;;16.83;60.10;99640.69;4452427;32;20000;-92
2021/09/20 07:07:01;;;;;;;;;;;;;;;16.93;60.11;99642.75;4437595;32;31930;-91
2021/09/20 07:09:26;;;;;;;;;;;;;;;17.01;60.12;99648.38;4437652;32;33897;-91
2021/09/20 07:11:51;;;;;;;;;;;;;;;17.02;60.12;99652.69;4438352;32;20012;-92
2021/09/20 07:14:16;;;;;;;;;;;;;;;16.94;60.11;99658.44;4437697;32;31700;-92
2021/09/20 07:16:42;;;;;;;;;;;;;;;17.00;60.10;99659.84;4438784;32;20050;-92
2021/09/20 07:19:07;;;;;;;;;;;;;;;17.16;60.12;99660.63;4438451;32;20324;-92
2021/09/20 07:21:32;;;;;;;;;;;;;;;17.21;60.12;99666.44;4437980;32;20004;-92
2021/09/20 07:23:58;;;;;;;;;;;;;;;17.33;60.13;99670.97;4440094;32;20320;-92
2021/09/20 07:26:25;;;;;;;;;;;;;;;17.46;60.14;99669.25;4440652;32;19993;-92
2021/09/20 07:28:50;;;;;;;;;;;;;;;17.50;60.14;99670.75;4440694;32;20056;-91
2021/09/20 07:31:15;;;;;;;;;;;;;;;17.66;60.14;99670.66;4440324;32;20356;-92
2021/09/20 07:33:40;;;;;;;;;;;;;;;17.21;60.12;99689.28;4440713;32;20014;-92
2021/09/20 07:36:06;;;;;;;;;;;;;;;17.13;60.12;99687.97;4440468;32;20016;-91
2021/09/20 07:38:31;;;;;;;;;;;;;;;16.75;60.09;99694.63;4440500;32;19985;-92
2021/09/20 07:40:56;;;;;;;;;;;;;;;16.88;60.11;99696.47;4440329;32;19974;-91
2021/09/20 07:43:23;;;;;;;;;;;;;;;17.05;60.11;99695.47;4440555;32;20028;-92
2021/09/20 07:45:48;;;;;;;;;;;;;;;16.97;60.11;99697.69;4454470;32;19986;-92
2021/09/20 07:48:13;;;;;;;;;;;;;;;16.94;60.11;99699.66;4454099;32;24666;-92
2021/09/20 07:50:39;;;;;;;;;;;;;;;17.08;60.12;99700.53;4440129;32;20688;-91
2021/09/20 07:53:04;;;;;;;;;;;;;;;17.30;60.13;99696.63;4440374;32;20039;-92
2021/09/20 07:55:35;;;;;;;;;;;;;;;17.34;60.13;99704.25;4427120;32;20259;-91
2021/09/20 07:58:07;;;;;;;;;;;;;;;17.17;60.13;99710.50;4440980;32;20337;-91
2021/09/20 08:00:32;;;;;;;;;;;;;;;17.28;60.13;99709.03;4440331;32;19985;-92
2021/09/20 08:02:58;;;;;;;;;;;;;;;17.13;60.12;99719.53;4440128;32;20019;-92
2021/09/20 08:05:23;;;;;;;;;;;;;;;17.08;60.12;99723.38;4440374;32;20330;-92
2021/09/20 08:07:48;;;;;;;;;;;;;;;17.17;60.13;99722.81;4454569;32;20114;-92
2021/09/20 08:10:13;;;;;;;;;;;;;;;17.05;60.12;99723.56;4440137;32;19995;-91
2021/09/20 08:12:39;;;;;;;;;;;;;;;17.03;60.12;99730.66;4439947;32;19977;-91
2021/09/20 08:15:04;;;;;;;;;;;;;;;16.83;60.10;99735.31;4439852;32;20086;-91
2021/09/20 08:17:31;;;;;;;;;;;;;;;16.51;60.08;99738.88;4440232;32;19993;-92
2021/09/20 08:19:56;;;;;;;;;;;;;;;16.41;60.08;99735.94;4440302;32;19985;-92
2021/09/20 08:22:21;;;;;;;;;;;;;;;16.23;60.08;99750.94;4440244;32;19976;-91
2021/09/20 08:24:46;;;;;;;;;;;;;;;16.28;60.07;99748.91;4440061;32;20305;-92
2021/09/20 08:27:12;;;;;;;;;;;;;;;16.22;60.06;99753.66;4440114;32;20044;-91
2021/09/20 08:29:37;;;;;;;;;;;;;;;15.88;60.06;99755.50;4440187;32;20012;-91
2021/09/20 08:32:07;;;;;;;;;;;;;;;15.67;60.04;99758.41;4453833;32;26110;-92
2021/09/20 08:34:32;;;;;;;;;;;;;;;15.84;60.05;99766.22;4440248;32;20005;-92
2021/09/20 08:36:59;;;;;;;;;;;;;;;15.85;60.05;99770.53;4439274;32;33415;-91
2021/09/20 08:39:24;;;;;;;;;;;;;;;15.62;60.04;99775.25;4440464;32;19981;-92
2021/09/20 08:41:50;;;;;;;;;;;;;;;15.64;60.04;99768.16;4439770;32;19973;-92
2021/09/20 08:44:15;;;;;;;;;;;;;;;15.36;60.03;99775.69;4439946;32;20353;-92
2021/09/20 08:46:40;;;;;;;;;;;;;;;15.42;60.03;99777.19;4439506;32;20027;-93
2021/09/20 08:49:06;;;;;;;;;;;;;;;15.56;60.04;99778.13;4440114;32;20025;-91
2021/09/20 08:51:31;;;;;;;;;;;;;;;15.46;60.02;99778.72;4440094;32;20039;-92
2021/09/20 08:53:56;;;;;;;;;;;;;;;15.42;60.03;99778.03;4426691;32;20064;-91
2021/09/20 08:56:21;;;;;;;;;;;;;;;15.43;60.03;99784.97;4439161;32;21567;-91
2021/09/20 08:58:47;;;;;;;;;;;;;;;15.51;60.04;99784.56;4440078;32;20551;-91
2021/09/20 09:01:12;;;;;;;;;;;;;;;15.38;60.03;99786.09;4439769;32;19977;-92
2021/09/20 09:03:37;;;;;;;;;;;;;;;15.32;60.03;99782.03;4439628;32;23049;-91
2021/09/20 09:06:02;;;;;;;;;;;;;;;15.31;60.02;99788.19;4454223;32;20281;-91
2021/09/20 09:08:38;;;;;;;;;;;;;;;15.20;60.01;99787.91;4439015;32;34591;-91
2021/09/20 09:11:12;;;;;;;;;;;;;;;15.48;60.04;99792.59;4439586;32;20044;-91
2021/09/20 09:13:41;;;;;;;;;;;;;;;15.04;60.01;99795.69;4439952;32;19994;-93
2021/09/20 09:16:17;;;;;;;;;;;;;;;15.04;60.01;99799.16;4439774;32;19989;-91
2021/09/20 09:19:05;;;;;;;;;;;;;;;14.93;60.00;99795.37;4440050;32;20000;-91
2021/09/20 09:21:41;;;;;;;;;;;;;;;14.89;60.00;99799.88;4445473;32;19973;-91
2021/09/20 09:24:10;;;;;;;;;;;;;;;14.92;60.00;99801.53;4440023;32;20690;-91
2021/09/20 09:26:35;;;;;;;;;;;;;;;15.10;60.01;99799.75;4439962;32;20404;-92
2021/09/20 09:29:11;;;;;;;;;;;;;;;15.13;60.01;99808.31;4452468;32;19988;-91
2021/09/20 09:31:36;;;;;;;;;;;;;;;15.35;60.02;99808.94;4439829;32;20257;-92
2021/09/20 09:34:13;;;;;;;;;;;;;;;15.35;60.02;99801.06;4440159;32;20035;-92
2021/09/20 09:36:41;;;;;;;;;;;;;;;15.40;60.03;99798.25;4426978;32;20001;-91
2021/09/20 09:39:06;;;;;;;;;;;;;;;15.73;60.05;99802.69;4440271;32;20041;-92
2021/09/20 09:41:36;;;;;;;;;;;;;;;15.85;60.05;99788.91;4439703;32;20226;-90
2021/09/20 09:44:02;;;;;;;;;;;;;;;16.04;60.06;99789.63;4439697;32;19993;-92
2021/09/20 09:46:27;;;;;;;;;;;;;;;16.20;60.07;99787.87;4438794;32;19989;-92
2021/09/20 09:48:54;;;;;;;;;;;;;;;16.22;60.07;99786.00;4439413;32;20000;-92
2021/09/20 09:51:19;;;;;;;;;;;;;;;16.43;60.08;99784.00;4439942;32;19981;-92
2021/09/20 09:53:45;;;;;;;;;;;;;;;16.32;60.08;99785.50;4439826;32;20473;-91
2021/09/20 09:56:13;;;;;;;;;;;;;;;16.34;60.08;99788.91;4439878;32;19997;-93
2021/09/20 09:58:49;;;;;;;;;;;;;;;16.21;60.07;99792.19;4439481;32;19977;-94
2021/09/20 10:01:16;;;;;;;;;;;;;;;16.36;60.07;99789.69;4439655;32;20310;-91
2021/09/20 10:04:01;;;;;;;;;;;;;;;16.36;60.08;99782.66;4439537;32;20035;-92
2021/09/20 10:06:26;;;;;;;;;;;;;;;16.53;60.08;99787.78;4438607;32;19981;-92
2021/09/20 10:08:52;;;;;;;;;;;;;;;16.78;60.11;99774.16;4438799;32;30087;-92
2021/09/20 10:11:17;;;;;;;;;;;;;;;16.71;60.10;99777.22;4438816;32;28643;-91
2021/09/20 10:13:42;;;;;;;;;;;;;;;16.94;60.11;99778.53;4453013;32;28013;-92
2021/09/20 10:16:07;;;;;;;;;;;;;;;17.04;60.12;99769.19;4438604;32;33364;-92
2021/09/20 10:18:33;;;;;;;;;;;;;;;17.10;60.12;99768.81;4438938;32;20219;-92
2021/09/20 10:20:59;;;;;;;;;;;;;;;17.13;60.12;99774.75;4439363;32;20261;-92
2021/09/20 10:23:24;;;;;;;;;;;;;;;16.96;60.11;99776.66;4438797;32;19985;-92
2021/09/20 10:25:49;;;;;;;;;;;;;;;16.78;60.11;99778.56;4438612;32;29778;-93
2021/09/20 10:28:15;;;;;;;;;;;;;;;16.87;60.11;99781.53;4438370;32;30240;-92
2021/09/20 10:30:42;;;;;;;;;;;;;;;16.95;60.11;99777.59;4438906;32;20012;-92
2021/09/20 10:33:08;;;;;;;;;;;;;;;17.05;60.12;99773.53;4426724;32;20009;-92
2021/09/20 10:35:40;;;;;;;;;;;;;;;17.09;60.12;99773.25;4439326;32;19989;-93
2021/09/20 10:38:12;;;;;;;;;;;;;;;17.43;60.13;99766.81;4439408;32;19997;-93
2021/09/20 10:40:37;;;;;;;;;;;;;;;17.32;60.13;99764.00;4439577;32;19997;-94
2021/09/20 10:43:03;;;;;;;;;;;;;;;17.24;60.12;99763.59;4439253;32;23204;-93
2021/09/20 10:45:52;;;;;;;;;;;;;;;17.07;60.11;99761.97;4438947;32;19989;-93
2021/09/20 10:48:20;;;;;;;;;;;;;;;17.19;60.12;99763.00;4439505;32;19997;-94
2021/09/20 10:50:49;;;;;;;;;;;;;;;17.02;60.12;99764.00;4453676;32;19978;-93
2021/09/20 10:53:17;;;;;;;;;;;;;;;17.21;60.12;99763.78;4439339;32;20037;-93
2021/09/20 10:56:08;;;;;;;;;;;;;;;17.30;60.13;99757.13;4439461;32;19989;-93
2021/09/20 10:58:34;;;;;;;;;;;;;;;17.54;60.15;99763.56;4433869;32;19987;-93
2021/09/20 11:01:12;;;;;;;;;;;;;;;17.72;60.15;99751.91;4441260;32;19986;-93
2021/09/20 11:03:40;;;;;;;;;;;;;;;17.77;60.14;99749.03;4440977;32;19997;-93
2021/09/20 11:06:19;;;;;;;;;;;;;;;17.98;60.16;99752.09;4440865;32;20008;-92
2021/09/20 11:08:44;;;;;;;;;;;;;;;18.04;60.17;99754.38;4441494;32;19985;-93
2021/09/20 11:11:28;;;;;;;;;;;;;;;18.29;60.18;99756.31;4441641;32;20027;-94
2021/09/20 11:14:01;;;;;;;;;;;;;;;18.51;60.19;99751.34;4441339;32;20359;-93
2021/09/20 11:16:45;;;;;;;;;;;;;;;18.55;60.20;99750.19;4441592;32;20015;-94
2021/09/20 11:19:26;;;;;;;;;;;;;;;18.87;60.21;99752.53;4441191;32;19981;-94
2021/09/20 11:22:04;;;;;;;;;;;;;;;19.08;60.23;99739.72;4441282;32;20040;-93
2021/09/20 11:24:33;;;;;;;;;;;;;;;18.75;60.20;99748.09;4441552;32;20397;-94
2021/09/20 11:26:58;;;;;;;;;;;;;;;19.07;60.22;99740.66;4441574;32;20129;-94
2021/09/20 11:29:26;;;;;;;;;;;;;;;19.33;60.24;99734.47;4440845;32;26207;-93
2021/09/20 11:31:52;;;;;;;;;;;;;;;19.68;60.25;99741.81;4441346;32;20005;-95
2021/09/20 11:34:27;;;;;;;;;;;;;;;19.77;60.27;99728.78;4441376;32;20483;-94
2021/09/20 11:36:53;;;;;;;;;;;;;;;19.75;60.25;99729.84;4441728;32;19992;-94
2021/09/20 11:39:18;;;;;;;;;;;;;;;19.92;60.26;99733.00;4441126;32;22149;-94
2021/09/20 11:41:46;;;;;;;;;;;;;;;19.87;60.27;99736.91;4428428;32;20005;-94
2021/09/20 11:44:12;;;;;;;;;;;;;;;20.03;60.28;99731.38;4441742;32;20397;-94
2021/09/20 11:46:37;;;;;;;;;;;;;;;20.15;60.27;99731.38;4441401;32;20401;-94
2021/09/20 11:49:03;;;;;;;;;;;;;;;20.29;60.29;99726.87;4428595;32;20016;-94
2021/09/20 11:51:28;;;;;;;;;;;;;;;20.36;60.29;99726.31;4442096;32;20000;-92
2021/09/20 11:53:54;;;;;;;;;;;;;;;20.35;60.29;99724.66;4441523;32;20341;-94
2021/09/20 11:56:23;;;;;;;;;;;;;;;20.39;60.29;99726.09;4440428;32;34628;-94
2021/09/20 11:58:55;;;;;;;;;;;;;;;20.63;60.32;99712.91;4441418;32;20027;-96
2021/09/20 12:01:25;;;;;;;;;;;;;;;20.90;60.32;99720.59;4440984;32;20539;-94
2021/09/20 12:03:51;;;;;;;;;;;;;;;20.61;60.30;99722.75;4441195;32;20000;-93
2021/09/20 12:06:16;;;;;;;;;;;;;;;20.20;60.28;99720.47;4441323;32;19985;-94
2021/09/20 12:08:41;;;;;;;;;;;;;;;20.44;60.30;99717.88;4440819;32;19993;-95
2021/09/20 12:11:06;;;;;;;;;;;;;;;20.42;60.29;99714.50;4441441;32;20255;-94
2021/09/20 12:13:34;;;;;;;;;;;;;;;20.41;60.29;99711.00;4440675;32;24966;-94
2021/09/20 12:16:04;;;;;;;;;;;;;;;20.55;60.31;99715.25;4441013;32;20337;-95
2021/09/20 12:18:29;;;;;;;;;;;;;;;20.19;60.28;99724.06;4441253;32;20055;-95
2021/09/20 12:20:55;;;;;;;;;;;;;;;19.95;60.27;99731.09;4440735;32;20022;-96
2021/09/20 12:23:21;;;;;;;;;;;;;;;19.78;60.27;99721.72;4441053;32;20639;-93
2021/09/20 12:25:50;;;;;;;;;;;;;;;20.00;60.27;99723.69;4440814;32;20000;-95
2021/09/20 12:28:17;;;;;;;;;;;;;;;19.70;60.26;99724.91;4441061;32;19985;-95
2021/09/20 12:31:03;;;;;;;;;;;;;;;19.80;60.27;99720.66;4440985;32;19988;-92
2021/09/20 12:33:28;;;;;;;;;;;;;;;19.70;60.26;99724.91;4440965;32;20033;-95
2021/09/20 12:35:54;;;;;;;;;;;;;;;19.77;60.27;99731.44;4440705;32;19997;-94
2021/09/20 12:38:21;;;;;;;;;;;;;;;19.89;60.27;99732.38;4440820;32;20030;-95
2021/09/20 12:40:46;;;;;;;;;;;;;;;20.14;60.28;99723.53;4440716;32;20013;-94
2021/09/20 12:43:20;;;;;;;;;;;;;;;20.16;60.29;99735.69;4441112;32;20001;-94